Seward, AK

8:04 PM AKDT on July 11, 2014 (GMT -0800)
Soldotna (PASX) Elev 112 ft | 60.48 °N, 151.03 °W | Change Station

Current weather conditions updated 8 minutes ago

Mostly Cloudy
Mostly Cloudy
63 °F
Feels Like 63 °F
N
4
Wind Variable Wind from NW

Tomorrow is forecast to be Cooler than today. Showers possible.

Today
High -- | Low -- °F
--% Chance of Precip.
Yesterday
High -- | Low -- °F
Precip. -- in
4:53 AM 11:12 PM
Full, 100% visible
Pressure 29.67 in
Visibility 10.0 miles
Clouds Mostly Cloudy 8500 ft
Dew Point 48 °F
Humidity 59%
Rainfall 0.02 in
Snow Depth 0 in , 15 in
UV 1 out of 12
Pollen Not available.
Air Quality Not available.
Flu Activity Sporadic
METAR PASX 120356Z AUTO 31003KT 10SM BKN085 17/09 A2967 RMK AO1

More Conditions Fewer Conditions

Pressure 29.67 in
Visibility 10.0 miles
Clouds Mostly Cloudy 8500 ft
Dew Point 48 °F
Humidity 59%
Rainfall 0.02 in
Snow Depth 0 in , 15 in
UV 1 out of 12
Pollen Not available.
Air Quality Not available.
Flu Activity Sporadic
METAR PASX 120356Z AUTO 31003KT 10SM BKN085 17/09 A2967 RMK AO1

More Conditions Fewer Conditions

10-Day Weather Forecast

Almanac

Astronomy

Jul. 11, 2014 Rise Set
Actual Time 4:53 AM AKDT 11:12 PM AKDT
Civil Twilight 3:27 AM AKDT 12:36 AM AKDT
Nautical Twilight Sun does not rise Sun does not rise
Astronomical Twilight Sun does not rise Sun does not rise
Moon 10:01 PM AKDT (7/11) 4:39 AM AKDT (7/11)
Length of Visible Light 21h 08m
Length of Day
18h 19m
Tomorrow will be 3m 22s shorter.
Full, 100% of the Moon is Illuminated
Jul 12
Full
Jul 12
Full
Jul 18
Last Quarter
Jul 26
New
Aug 3
First Quarter

Today's Extremes

State Highs State Lows

Community

WunderPhotos

Upload Photos

1,732,699 photos uploaded!

Nearby

Snow Depth

Station Depth Elevation
Grouse Creek Divide 0 in 700 ft
Cooper Lake 15 in 1200 ft
Summit Creek 0 in 1400 ft
Grandview 1 in 1100 ft
Turnagain Pass 0 in 1880 ft

Earthquake Activity

City Distance Mag. Time & Date
No recent earthquake activity has been reported nearby.
Minimum magnitude displayed is 2.5.

Coastal Water Temperatures

Place Temperature
No Stations Reporting

Nearby Weather Stations

Station Location Temp. Windchill Dew Point Humidity Wind Precip. Elev Updated Type
Oak Street Forest Acres Seward Alaska, Seward, AK 55.0 °F - 53 °F 94% North  at  0.0 mph 0.04 in / hr 144 ft 8:04 PM AKDT Rapid Fire
RAWS KENAI LAKE AK, Moose Pass, AK 60 °F - 48 °F 64% South  at  1 mph 0.00 in / hr 470 ft 6:56 PM AKDT MADIS
RAWS PEDERSEN LAGOON AK, Seward, AK 52 °F - 52 °F 99% South  at  4 mph 0.05 in / hr 625 ft 7:28 PM AKDT MADIS
HADS WOLVERINE GLACIER 24 MI NE OF SEWAR, Moose Pass, AK 47 °F 38 °F 42 °F 85% NE  at  27 mph 0.00 in / hr 3098 ft 7:00 PM AKDT MADIS

Show More Stations Show Fewer Stations